sensor_id;sensor_type;location;lat;lon;timestamp;P1;durP1;ratioP1;P2;durP2;ratioP2
54947;SDS011;41113;41.882;12.530;2022-12-07T00:00:48;44.28;;;26.00;;
54947;SDS011;41113;41.882;12.530;2022-12-07T00:03:14;47.15;;;26.00;;
54947;SDS011;41113;41.882;12.530;2022-12-07T00:05:39;39.25;;;26.48;;
54947;SDS011;41113;41.882;12.530;2022-12-07T00:08:05;40.35;;;24.42;;
54947;SDS011;41113;41.882;12.530;2022-12-07T00:10:32;40.20;;;25.60;;
54947;SDS011;41113;41.882;12.530;2022-12-07T00:12:58;37.58;;;23.58;;
54947;SDS011;41113;41.882;12.530;2022-12-07T00:15:24;45.55;;;27.10;;
54947;SDS011;41113;41.882;12.530;2022-12-07T00:17:49;43.97;;;25.83;;
54947;SDS011;41113;41.882;12.530;2022-12-07T00:20:15;31.90;;;23.27;;
54947;SDS011;41113;41.882;12.530;2022-12-07T00:22:40;40.13;;;25.60;;
54947;SDS011;41113;41.882;12.530;2022-12-07T00:25:06;39.05;;;25.02;;
54947;SDS011;41113;41.882;12.530;2022-12-07T00:27:31;46.95;;;26.60;;
54947;SDS011;41113;41.882;12.530;2022-12-07T00:29:56;46.58;;;27.17;;
54947;SDS011;41113;41.882;12.530;2022-12-07T00:32:22;47.38;;;26.48;;
54947;SDS011;41113;41.882;12.530;2022-12-07T00:34:47;48.20;;;26.33;;
54947;SDS011;41113;41.882;12.530;2022-12-07T00:37:13;40.38;;;25.85;;
54947;SDS011;41113;41.882;12.530;2022-12-07T00:39:38;43.08;;;27.33;;
54947;SDS011;41113;41.882;12.530;2022-12-07T00:42:04;40.17;;;25.33;;
54947;SDS011;41113;41.882;12.530;2022-12-07T00:44:29;37.95;;;25.65;;
54947;SDS011;41113;41.882;12.530;2022-12-07T00:46:55;48.60;;;27.70;;
54947;SDS011;41113;41.882;12.530;2022-12-07T00:49:21;48.10;;;26.90;;
54947;SDS011;41113;41.882;12.530;2022-12-07T00:51:48;42.10;;;26.90;;
54947;SDS011;41113;41.882;12.530;2022-12-07T00:54:14;42.25;;;24.83;;
54947;SDS011;41113;41.882;12.530;2022-12-07T00:56:39;40.70;;;24.33;;
54947;SDS011;41113;41.882;12.530;2022-12-07T00:59:05;39.85;;;25.05;;
54947;SDS011;41113;41.882;12.530;2022-12-07T01:01:33;41.00;;;24.90;;
54947;SDS011;41113;41.882;12.530;2022-12-07T01:04:00;45.42;;;25.73;;
54947;SDS011;41113;41.882;12.530;2022-12-07T01:06:26;42.90;;;24.55;;
54947;SDS011;41113;41.882;12.530;2022-12-07T01:08:52;35.90;;;23.15;;
54947;SDS011;41113;41.882;12.530;2022-12-07T01:11:20;36.80;;;22.30;;
54947;SDS011;41113;41.882;12.530;2022-12-07T01:16:15;35.88;;;21.20;;
54947;SDS011;41113;41.882;12.530;2022-12-07T01:18:41;38.10;;;19.90;;
54947;SDS011;41113;41.882;12.530;2022-12-07T01:21:11;31.02;;;19.20;;
54947;SDS011;41113;41.882;12.530;2022-12-07T01:23:41;34.67;;;19.63;;
54947;SDS011;41113;41.882;12.530;2022-12-07T01:26:09;32.47;;;19.55;;
54947;SDS011;41113;41.882;12.530;2022-12-07T01:28:36;31.63;;;18.85;;
54947;SDS011;41113;41.882;12.530;2022-12-07T01:31:07;40.13;;;19.90;;
54947;SDS011;41113;41.882;12.530;2022-12-07T01:33:36;33.20;;;18.88;;
54947;SDS011;41113;41.882;12.530;2022-12-07T01:36:06;34.88;;;19.77;;
54947;SDS011;41113;41.882;12.530;2022-12-07T01:38:41;33.83;;;20.15;;
54947;SDS011;41113;41.882;12.530;2022-12-07T01:41:08;37.38;;;18.80;;
54947;SDS011;41113;41.882;12.530;2022-12-07T01:43:34;36.70;;;21.23;;
54947;SDS011;41113;41.882;12.530;2022-12-07T01:46:00;38.03;;;19.02;;
54947;SDS011;41113;41.882;12.530;2022-12-07T01:51:10;34.00;;;18.75;;
54947;SDS011;41113;41.882;12.530;2022-12-07T01:53:42;28.15;;;17.90;;
54947;SDS011;41113;41.882;12.530;2022-12-07T01:56:11;32.95;;;17.67;;
54947;SDS011;41113;41.882;12.530;2022-12-07T01:58:42;29.90;;;17.63;;
54947;SDS011;41113;41.882;12.530;2022-12-07T02:01:09;35.20;;;17.63;;
54947;SDS011;41113;41.882;12.530;2022-12-07T02:03:38;30.58;;;17.17;;
54947;SDS011;41113;41.882;12.530;2022-12-07T02:06:05;31.85;;;16.42;;
54947;SDS011;41113;41.882;12.530;2022-12-07T02:08:32;24.38;;;16.08;;
54947;SDS011;41113;41.882;12.530;2022-12-07T02:10:58;32.50;;;15.43;;
54947;SDS011;41113;41.882;12.530;2022-12-07T02:13:26;32.00;;;16.75;;
54947;SDS011;41113;41.882;12.530;2022-12-07T02:21:20;28.13;;;15.93;;
54947;SDS011;41113;41.882;12.530;2022-12-07T02:24:14;25.42;;;15.43;;
54947;SDS011;41113;41.882;12.530;2022-12-07T02:29:11;22.75;;;14.82;;
54947;SDS011;41113;41.882;12.530;2022-12-07T02:31:39;25.67;;;14.43;;
54947;SDS011;41113;41.882;12.530;2022-12-07T02:34:12;25.15;;;14.50;;
54947;SDS011;41113;41.882;12.530;2022-12-07T02:36:49;26.85;;;15.73;;
54947;SDS011;41113;41.882;12.530;2022-12-07T02:39:30;25.50;;;16.67;;
54947;SDS011;41113;41.882;12.530;2022-12-07T02:42:09;26.98;;;15.52;;
54947;SDS011;41113;41.882;12.530;2022-12-07T02:44:44;28.80;;;15.32;;
54947;SDS011;41113;41.882;12.530;2022-12-07T02:47:12;27.70;;;14.45;;
54947;SDS011;41113;41.882;12.530;2022-12-07T02:49:42;31.60;;;16.33;;
54947;SDS011;41113;41.882;12.530;2022-12-07T02:52:08;32.08;;;18.23;;
54947;SDS011;41113;41.882;12.530;2022-12-07T02:54:33;27.67;;;15.55;;
54947;SDS011;41113;41.882;12.530;2022-12-07T02:57:06;28.23;;;16.83;;
54947;SDS011;41113;41.882;12.530;2022-12-07T02:59:48;29.05;;;16.77;;
54947;SDS011;41113;41.882;12.530;2022-12-07T03:08:24;29.40;;;14.25;;
54947;SDS011;41113;41.882;12.530;2022-12-07T03:11:09;24.52;;;14.73;;
54947;SDS011;41113;41.882;12.530;2022-12-07T03:16:41;23.52;;;13.88;;
54947;SDS011;41113;41.882;12.530;2022-12-07T03:19:15;22.60;;;13.65;;
54947;SDS011;41113;41.882;12.530;2022-12-07T03:21:47;21.92;;;13.35;;
54947;SDS011;41113;41.882;12.530;2022-12-07T03:24:19;22.17;;;12.90;;
54947;SDS011;41113;41.882;12.530;2022-12-07T03:26:55;27.23;;;13.63;;
54947;SDS011;41113;41.882;12.530;2022-12-07T03:29:40;26.67;;;13.85;;
54947;SDS011;41113;41.882;12.530;2022-12-07T03:32:15;26.48;;;14.07;;
54947;SDS011;41113;41.882;12.530;2022-12-07T03:35:20;28.15;;;15.50;;
54947;SDS011;41113;41.882;12.530;2022-12-07T03:37:59;29.27;;;15.70;;
54947;SDS011;41113;41.882;12.530;2022-12-07T03:40:34;27.95;;;16.75;;
54947;SDS011;41113;41.882;12.530;2022-12-07T03:43:02;27.60;;;15.50;;
54947;SDS011;41113;41.882;12.530;2022-12-07T03:45:33;26.77;;;16.27;;
54947;SDS011;41113;41.882;12.530;2022-12-07T03:50:43;26.42;;;16.10;;
54947;SDS011;41113;41.882;12.530;2022-12-07T03:53:18;28.65;;;15.77;;
54947;SDS011;41113;41.882;12.530;2022-12-07T03:55:56;30.55;;;16.63;;
54947;SDS011;41113;41.882;12.530;2022-12-07T03:58:23;28.70;;;15.35;;
54947;SDS011;41113;41.882;12.530;2022-12-07T04:00:50;31.20;;;16.88;;
54947;SDS011;41113;41.882;12.530;2022-12-07T04:03:16;30.77;;;16.80;;
54947;SDS011;41113;41.882;12.530;2022-12-07T04:05:42;31.08;;;16.60;;
54947;SDS011;41113;41.882;12.530;2022-12-07T04:08:09;30.13;;;17.35;;
54947;SDS011;41113;41.882;12.530;2022-12-07T04:10:34;25.05;;;15.65;;
54947;SDS011;41113;41.882;12.530;2022-12-07T04:13:00;28.60;;;15.70;;
54947;SDS011;41113;41.882;12.530;2022-12-07T04:15:25;33.58;;;16.92;;
54947;SDS011;41113;41.882;12.530;2022-12-07T04:17:51;22.65;;;14.23;;
54947;SDS011;41113;41.882;12.530;2022-12-07T04:20:16;30.65;;;14.75;;
54947;SDS011;41113;41.882;12.530;2022-12-07T04:22:41;30.20;;;15.05;;
54947;SDS011;41113;41.882;12.530;2022-12-07T04:25:07;29.42;;;14.45;;
54947;SDS011;41113;41.882;12.530;2022-12-07T04:27:33;30.80;;;15.20;;
54947;SDS011;41113;41.882;12.530;2022-12-07T04:29:58;26.15;;;14.55;;
54947;SDS011;41113;41.882;12.530;2022-12-07T04:32:23;30.08;;;16.85;;
54947;SDS011;41113;41.882;12.530;2022-12-07T04:34:49;33.78;;;17.23;;
54947;SDS011;41113;41.882;12.530;2022-12-07T04:37:14;31.58;;;18.65;;
54947;SDS011;41113;41.882;12.530;2022-12-07T04:39:40;27.60;;;17.52;;
54947;SDS011;41113;41.882;12.530;2022-12-07T04:42:05;27.48;;;18.02;;
54947;SDS011;41113;41.882;12.530;2022-12-07T04:44:31;33.45;;;19.38;;
54947;SDS011;41113;41.882;12.530;2022-12-07T04:46:56;30.88;;;15.93;;
54947;SDS011;41113;41.882;12.530;2022-12-07T04:49:22;22.85;;;13.95;;
54947;SDS011;41113;41.882;12.530;2022-12-07T04:51:49;22.38;;;12.95;;
54947;SDS011;41113;41.882;12.530;2022-12-07T04:54:15;22.60;;;13.05;;
54947;SDS011;41113;41.882;12.530;2022-12-07T04:56:41;26.10;;;12.70;;
54947;SDS011;41113;41.882;12.530;2022-12-07T04:59:06;28.00;;;12.77;;
54947;SDS011;41113;41.882;12.530;2022-12-07T05:01:33;20.40;;;11.05;;
54947;SDS011;41113;41.882;12.530;2022-12-07T05:03:59;20.80;;;12.90;;
54947;SDS011;41113;41.882;12.530;2022-12-07T05:06:24;24.17;;;13.48;;
54947;SDS011;41113;41.882;12.530;2022-12-07T05:08:50;23.33;;;12.40;;
54947;SDS011;41113;41.882;12.530;2022-12-07T05:11:16;23.58;;;12.68;;
54947;SDS011;41113;41.882;12.530;2022-12-07T05:14:00;22.65;;;12.30;;
54947;SDS011;41113;41.882;12.530;2022-12-07T05:16:26;23.67;;;11.60;;
54947;SDS011;41113;41.882;12.530;2022-12-07T05:18:52;25.85;;;11.48;;
54947;SDS011;41113;41.882;12.530;2022-12-07T05:21:17;25.23;;;12.52;;
54947;SDS011;41113;41.882;12.530;2022-12-07T05:23:43;24.33;;;12.98;;
54947;SDS011;41113;41.882;12.530;2022-12-07T05:26:09;25.38;;;12.02;;
54947;SDS011;41113;41.882;12.530;2022-12-07T05:28:34;28.23;;;12.98;;
54947;SDS011;41113;41.882;12.530;2022-12-07T05:31:00;23.20;;;12.05;;
54947;SDS011;41113;41.882;12.530;2022-12-07T05:33:26;23.33;;;12.38;;
54947;SDS011;41113;41.882;12.530;2022-12-07T05:35:52;23.85;;;11.10;;
54947;SDS011;41113;41.882;12.530;2022-12-07T05:38:17;25.88;;;10.95;;
54947;SDS011;41113;41.882;12.530;2022-12-07T05:40:43;24.60;;;11.50;;
54947;SDS011;41113;41.882;12.530;2022-12-07T05:43:08;25.15;;;11.18;;
54947;SDS011;41113;41.882;12.530;2022-12-07T05:45:34;25.17;;;10.70;;
54947;SDS011;41113;41.882;12.530;2022-12-07T05:47:59;24.70;;;10.32;;
54947;SDS011;41113;41.882;12.530;2022-12-07T05:50:24;25.85;;;12.60;;
54947;SDS011;41113;41.882;12.530;2022-12-07T05:52:50;22.40;;;12.07;;
54947;SDS011;41113;41.882;12.530;2022-12-07T05:55:15;26.45;;;13.05;;
54947;SDS011;41113;41.882;12.530;2022-12-07T05:57:41;23.55;;;12.40;;
54947;SDS011;41113;41.882;12.530;2022-12-07T06:00:26;23.27;;;12.52;;
54947;SDS011;41113;41.882;12.530;2022-12-07T06:02:52;21.30;;;12.55;;
54947;SDS011;41113;41.882;12.530;2022-12-07T06:05:17;25.20;;;14.35;;
54947;SDS011;41113;41.882;12.530;2022-12-07T06:07:42;22.58;;;12.50;;
54947;SDS011;41113;41.882;12.530;2022-12-07T06:10:08;22.33;;;12.35;;
54947;SDS011;41113;41.882;12.530;2022-12-07T06:12:33;22.02;;;12.63;;
54947;SDS011;41113;41.882;12.530;2022-12-07T06:14:59;22.23;;;12.70;;
54947;SDS011;41113;41.882;12.530;2022-12-07T06:17:24;22.95;;;13.77;;
54947;SDS011;41113;41.882;12.530;2022-12-07T06:19:50;29.02;;;14.57;;
54947;SDS011;41113;41.882;12.530;2022-12-07T06:22:16;26.15;;;13.45;;
54947;SDS011;41113;41.882;12.530;2022-12-07T06:24:42;21.08;;;12.18;;
54947;SDS011;41113;41.882;12.530;2022-12-07T06:27:08;19.27;;;11.45;;
54947;SDS011;41113;41.882;12.530;2022-12-07T06:29:34;23.77;;;12.77;;
54947;SDS011;41113;41.882;12.530;2022-12-07T06:31:59;23.60;;;13.32;;
54947;SDS011;41113;41.882;12.530;2022-12-07T06:34:25;25.25;;;15.40;;
54947;SDS011;41113;41.882;12.530;2022-12-07T06:36:51;26.15;;;14.95;;
54947;SDS011;41113;41.882;12.530;2022-12-07T06:39:19;28.23;;;14.82;;
54947;SDS011;41113;41.882;12.530;2022-12-07T06:41:45;27.65;;;14.77;;
54947;SDS011;41113;41.882;12.530;2022-12-07T06:44:11;25.73;;;15.07;;
54947;SDS011;41113;41.882;12.530;2022-12-07T06:46:36;28.48;;;13.80;;
54947;SDS011;41113;41.882;12.530;2022-12-07T06:49:02;23.67;;;14.38;;
54947;SDS011;41113;41.882;12.530;2022-12-07T06:51:29;28.77;;;14.55;;
54947;SDS011;41113;41.882;12.530;2022-12-07T06:53:56;22.45;;;14.48;;
54947;SDS011;41113;41.882;12.530;2022-12-07T06:56:21;25.00;;;14.40;;
54947;SDS011;41113;41.882;12.530;2022-12-07T06:58:47;25.60;;;14.70;;
54947;SDS011;41113;41.882;12.530;2022-12-07T07:01:15;28.27;;;14.88;;
54947;SDS011;41113;41.882;12.530;2022-12-07T07:03:43;29.42;;;14.10;;
54947;SDS011;41113;41.882;12.530;2022-12-07T07:06:09;24.95;;;13.80;;
54947;SDS011;41113;41.882;12.530;2022-12-07T07:08:36;25.02;;;14.75;;
54947;SDS011;41113;41.882;12.530;2022-12-07T07:11:02;26.90;;;13.88;;
54947;SDS011;41113;41.882;12.530;2022-12-07T07:13:28;25.42;;;14.15;;
54947;SDS011;41113;41.882;12.530;2022-12-07T07:15:54;26.40;;;13.48;;
54947;SDS011;41113;41.882;12.530;2022-12-07T07:18:19;24.63;;;13.13;;
54947;SDS011;41113;41.882;12.530;2022-12-07T07:20:45;22.55;;;13.30;;
54947;SDS011;41113;41.882;12.530;2022-12-07T07:23:10;26.77;;;12.60;;
54947;SDS011;41113;41.882;12.530;2022-12-07T07:25:36;29.17;;;13.25;;
54947;SDS011;41113;41.882;12.530;2022-12-07T07:28:01;27.23;;;12.43;;
54947;SDS011;41113;41.882;12.530;2022-12-07T07:30:27;24.13;;;12.38;;
54947;SDS011;41113;41.882;12.530;2022-12-07T07:32:59;23.98;;;12.85;;
54947;SDS011;41113;41.882;12.530;2022-12-07T07:35:27;22.48;;;11.82;;
54947;SDS011;41113;41.882;12.530;2022-12-07T07:37:53;26.40;;;11.00;;
54947;SDS011;41113;41.882;12.530;2022-12-07T07:40:19;21.08;;;11.70;;
54947;SDS011;41113;41.882;12.530;2022-12-07T07:42:46;21.35;;;11.55;;
54947;SDS011;41113;41.882;12.530;2022-12-07T07:45:13;24.83;;;12.57;;
54947;SDS011;41113;41.882;12.530;2022-12-07T07:47:38;24.67;;;11.32;;
54947;SDS011;41113;41.882;12.530;2022-12-07T07:50:04;18.98;;;11.73;;
54947;SDS011;41113;41.882;12.530;2022-12-07T07:52:30;23.98;;;12.10;;
54947;SDS011;41113;41.882;12.530;2022-12-07T07:54:56;21.27;;;11.63;;
54947;SDS011;41113;41.882;12.530;2022-12-07T07:57:21;18.45;;;11.05;;
54947;SDS011;41113;41.882;12.530;2022-12-07T07:59:47;23.35;;;10.65;;
54947;SDS011;41113;41.882;12.530;2022-12-07T08:02:16;23.30;;;11.50;;
54947;SDS011;41113;41.882;12.530;2022-12-07T08:04:44;17.38;;;10.30;;
54947;SDS011;41113;41.882;12.530;2022-12-07T08:07:10;24.65;;;11.88;;
54947;SDS011;41113;41.882;12.530;2022-12-07T08:09:36;21.88;;;10.88;;
54947;SDS011;41113;41.882;12.530;2022-12-07T08:12:02;25.10;;;11.85;;
54947;SDS011;41113;41.882;12.530;2022-12-07T08:14:28;19.15;;;11.00;;
54947;SDS011;41113;41.882;12.530;2022-12-07T08:16:54;24.35;;;11.38;;
54947;SDS011;41113;41.882;12.530;2022-12-07T08:19:19;21.23;;;10.75;;
54947;SDS011;41113;41.882;12.530;2022-12-07T08:21:45;21.90;;;11.05;;
54947;SDS011;41113;41.882;12.530;2022-12-07T08:24:10;18.83;;;10.73;;
54947;SDS011;41113;41.882;12.530;2022-12-07T08:26:36;20.55;;;10.35;;
54947;SDS011;41113;41.882;12.530;2022-12-07T08:29:02;19.63;;;10.07;;
54947;SDS011;41113;41.882;12.530;2022-12-07T08:31:27;17.05;;;9.93;;
54947;SDS011;41113;41.882;12.530;2022-12-07T08:33:53;18.58;;;9.40;;
54947;SDS011;41113;41.882;12.530;2022-12-07T08:36:19;21.33;;;9.52;;
54947;SDS011;41113;41.882;12.530;2022-12-07T08:38:44;24.88;;;9.48;;
54947;SDS011;41113;41.882;12.530;2022-12-07T08:41:10;18.48;;;9.52;;
54947;SDS011;41113;41.882;12.530;2022-12-07T08:43:36;20.15;;;8.95;;
54947;SDS011;41113;41.882;12.530;2022-12-07T08:48:44;18.23;;;9.05;;
54947;SDS011;41113;41.882;12.530;2022-12-07T08:51:30;19.45;;;9.27;;
54947;SDS011;41113;41.882;12.530;2022-12-07T08:53:57;26.40;;;9.70;;
54947;SDS011;41113;41.882;12.530;2022-12-07T08:56:25;21.42;;;9.80;;
54947;SDS011;41113;41.882;12.530;2022-12-07T08:58:51;21.27;;;9.02;;
54947;SDS011;41113;41.882;12.530;2022-12-07T09:01:17;20.52;;;7.82;;
54947;SDS011;41113;41.882;12.530;2022-12-07T09:03:42;22.27;;;8.15;;
54947;SDS011;41113;41.882;12.530;2022-12-07T09:06:08;19.00;;;9.25;;
54947;SDS011;41113;41.882;12.530;2022-12-07T09:08:37;17.77;;;7.93;;
54947;SDS011;41113;41.882;12.530;2022-12-07T09:11:07;22.92;;;8.77;;
54947;SDS011;41113;41.882;12.530;2022-12-07T09:13:32;16.67;;;7.32;;
54947;SDS011;41113;41.882;12.530;2022-12-07T09:15:58;19.42;;;7.40;;
54947;SDS011;41113;41.882;12.530;2022-12-07T09:18:23;20.00;;;8.68;;
54947;SDS011;41113;41.882;12.530;2022-12-07T09:20:49;18.13;;;8.32;;
54947;SDS011;41113;41.882;12.530;2022-12-07T09:23:15;19.52;;;8.20;;
54947;SDS011;41113;41.882;12.530;2022-12-07T09:25:41;19.67;;;8.30;;
54947;SDS011;41113;41.882;12.530;2022-12-07T09:28:06;18.88;;;7.05;;
54947;SDS011;41113;41.882;12.530;2022-12-07T09:30:32;19.27;;;7.55;;
54947;SDS011;41113;41.882;12.530;2022-12-07T09:32:57;18.38;;;6.93;;
54947;SDS011;41113;41.882;12.530;2022-12-07T09:35:23;19.50;;;7.38;;
54947;SDS011;41113;41.882;12.530;2022-12-07T09:37:49;16.35;;;6.93;;
54947;SDS011;41113;41.882;12.530;2022-12-07T09:40:16;16.95;;;6.40;;
54947;SDS011;41113;41.882;12.530;2022-12-07T09:42:44;14.25;;;6.15;;
54947;SDS011;41113;41.882;12.530;2022-12-07T09:45:14;20.90;;;7.25;;
54947;SDS011;41113;41.882;12.530;2022-12-07T09:47:48;22.63;;;7.10;;
54947;SDS011;41113;41.882;12.530;2022-12-07T09:50:15;25.83;;;8.68;;
54947;SDS011;41113;41.882;12.530;2022-12-07T09:52:45;25.92;;;6.97;;
54947;SDS011;41113;41.882;12.530;2022-12-07T09:55:13;16.15;;;6.32;;
54947;SDS011;41113;41.882;12.530;2022-12-07T09:57:41;19.92;;;7.25;;
54947;SDS011;41113;41.882;12.530;2022-12-07T10:00:18;16.60;;;6.65;;
54947;SDS011;41113;41.882;12.530;2022-12-07T10:02:54;18.85;;;7.43;;
54947;SDS011;41113;41.882;12.530;2022-12-07T10:05:27;20.48;;;7.15;;
54947;SDS011;41113;41.882;12.530;2022-12-07T10:07:53;17.45;;;6.40;;
54947;SDS011;41113;41.882;12.530;2022-12-07T10:10:23;15.75;;;6.07;;
54947;SDS011;41113;41.882;12.530;2022-12-07T10:15:22;19.38;;;6.93;;
54947;SDS011;41113;41.882;12.530;2022-12-07T10:17:49;16.95;;;6.57;;
54947;SDS011;41113;41.882;12.530;2022-12-07T10:20:19;18.63;;;7.50;;
54947;SDS011;41113;41.882;12.530;2022-12-07T10:22:54;19.13;;;7.25;;
54947;SDS011;41113;41.882;12.530;2022-12-07T10:25:34;17.63;;;6.63;;
54947;SDS011;41113;41.882;12.530;2022-12-07T10:28:02;19.90;;;7.50;;
54947;SDS011;41113;41.882;12.530;2022-12-07T10:30:29;17.15;;;6.63;;
54947;SDS011;41113;41.882;12.530;2022-12-07T10:32:56;18.65;;;6.88;;
54947;SDS011;41113;41.882;12.530;2022-12-07T10:35:23;19.70;;;7.40;;
54947;SDS011;41113;41.882;12.530;2022-12-07T10:37:53;18.92;;;7.05;;
54947;SDS011;41113;41.882;12.530;2022-12-07T10:43:08;17.48;;;7.03;;
54947;SDS011;41113;41.882;12.530;2022-12-07T10:50:52;21.27;;;7.50;;
54947;SDS011;41113;41.882;12.530;2022-12-07T10:59:29;18.83;;;7.47;;
54947;SDS011;41113;41.882;12.530;2022-12-07T11:05:02;21.40;;;8.23;;
54947;SDS011;41113;41.882;12.530;2022-12-07T11:13:25;15.43;;;6.50;;
54947;SDS011;41113;41.882;12.530;2022-12-07T11:18:57;23.77;;;8.88;;
54947;SDS011;41113;41.882;12.530;2022-12-07T11:21:45;23.30;;;8.88;;
54947;SDS011;41113;41.882;12.530;2022-12-07T11:24:32;22.00;;;8.15;;
54947;SDS011;41113;41.882;12.530;2022-12-07T11:37:51;25.73;;;8.90;;
54947;SDS011;41113;41.882;12.530;2022-12-07T11:40:35;17.02;;;6.30;;
54947;SDS011;41113;41.882;12.530;2022-12-07T11:43:04;16.05;;;6.50;;
54947;SDS011;41113;41.882;12.530;2022-12-07T11:45:39;15.68;;;5.70;;
54947;SDS011;41113;41.882;12.530;2022-12-07T11:50:41;18.58;;;6.90;;
54947;SDS011;41113;41.882;12.530;2022-12-07T12:01:11;21.40;;;7.78;;
54947;SDS011;41113;41.882;12.530;2022-12-07T12:03:49;19.67;;;7.32;;
54947;SDS011;41113;41.882;12.530;2022-12-07T12:06:17;20.85;;;7.65;;
54947;SDS011;41113;41.882;12.530;2022-12-07T12:09:06;18.42;;;8.10;;
54947;SDS011;41113;41.882;12.530;2022-12-07T12:11:34;22.75;;;8.90;;
54947;SDS011;41113;41.882;12.530;2022-12-07T12:14:18;21.48;;;9.73;;
54947;SDS011;41113;41.882;12.530;2022-12-07T12:17:25;21.60;;;9.15;;
54947;SDS011;41113;41.882;12.530;2022-12-07T12:22:54;24.27;;;9.23;;
54947;SDS011;41113;41.882;12.530;2022-12-07T12:25:39;19.63;;;8.02;;
54947;SDS011;41113;41.882;12.530;2022-12-07T12:28:22;21.20;;;7.60;;
54947;SDS011;41113;41.882;12.530;2022-12-07T12:33:30;18.65;;;7.63;;
54947;SDS011;41113;41.882;12.530;2022-12-07T12:44:01;19.33;;;7.25;;
54947;SDS011;41113;41.882;12.530;2022-12-07T12:51:41;20.42;;;8.60;;
54947;SDS011;41113;41.882;12.530;2022-12-07T12:54:26;17.35;;;7.80;;
54947;SDS011;41113;41.882;12.530;2022-12-07T13:02:24;15.07;;;6.55;;
54947;SDS011;41113;41.882;12.530;2022-12-07T13:04:53;17.40;;;6.95;;
54947;SDS011;41113;41.882;12.530;2022-12-07T13:15:36;21.92;;;6.72;;
54947;SDS011;41113;41.882;12.530;2022-12-07T13:18:14;17.77;;;7.50;;
54947;SDS011;41113;41.882;12.530;2022-12-07T13:23:32;19.48;;;8.13;;
54947;SDS011;41113;41.882;12.530;2022-12-07T13:31:55;22.77;;;8.13;;
54947;SDS011;41113;41.882;12.530;2022-12-07T13:34:29;17.60;;;7.88;;
54947;SDS011;41113;41.882;12.530;2022-12-07T13:36:54;16.92;;;7.13;;
54947;SDS011;41113;41.882;12.530;2022-12-07T13:39:22;15.30;;;6.90;;
54947;SDS011;41113;41.882;12.530;2022-12-07T13:41:49;17.10;;;7.65;;
54947;SDS011;41113;41.882;12.530;2022-12-07T13:44:17;21.55;;;7.32;;
54947;SDS011;41113;41.882;12.530;2022-12-07T13:49:25;16.88;;;7.43;;
54947;SDS011;41113;41.882;12.530;2022-12-07T13:51:53;22.30;;;7.50;;
54947;SDS011;41113;41.882;12.530;2022-12-07T13:54:20;18.08;;;7.70;;
54947;SDS011;41113;41.882;12.530;2022-12-07T13:56:50;21.77;;;7.55;;
54947;SDS011;41113;41.882;12.530;2022-12-07T13:59:18;15.93;;;7.38;;
54947;SDS011;41113;41.882;12.530;2022-12-07T14:01:47;23.35;;;7.97;;
54947;SDS011;41113;41.882;12.530;2022-12-07T14:06:57;21.02;;;7.32;;
54947;SDS011;41113;41.882;12.530;2022-12-07T14:09:23;17.20;;;6.40;;
54947;SDS011;41113;41.882;12.530;2022-12-07T14:11:51;15.38;;;6.97;;
54947;SDS011;41113;41.882;12.530;2022-12-07T14:14:25;18.95;;;7.05;;
54947;SDS011;41113;41.882;12.530;2022-12-07T14:16:55;22.40;;;7.25;;
54947;SDS011;41113;41.882;12.530;2022-12-07T14:24:48;19.35;;;7.18;;
54947;SDS011;41113;41.882;12.530;2022-12-07T14:27:21;20.80;;;6.85;;
54947;SDS011;41113;41.882;12.530;2022-12-07T14:29:50;11.52;;;5.45;;
54947;SDS011;41113;41.882;12.530;2022-12-07T14:32:20;18.95;;;6.47;;
54947;SDS011;41113;41.882;12.530;2022-12-07T14:34:53;19.00;;;6.55;;
54947;SDS011;41113;41.882;12.530;2022-12-07T14:37:27;19.98;;;7.45;;
54947;SDS011;41113;41.882;12.530;2022-12-07T14:39:53;20.65;;;6.60;;
54947;SDS011;41113;41.882;12.530;2022-12-07T14:42:19;18.38;;;7.40;;
54947;SDS011;41113;41.882;12.530;2022-12-07T14:44:46;16.52;;;6.63;;
54947;SDS011;41113;41.882;12.530;2022-12-07T14:47:12;16.50;;;6.70;;
54947;SDS011;41113;41.882;12.530;2022-12-07T14:49:37;16.65;;;7.00;;
54947;SDS011;41113;41.882;12.530;2022-12-07T14:52:03;21.98;;;7.95;;
54947;SDS011;41113;41.882;12.530;2022-12-07T14:54:30;21.17;;;7.63;;
54947;SDS011;41113;41.882;12.530;2022-12-07T14:56:57;20.40;;;7.88;;
54947;SDS011;41113;41.882;12.530;2022-12-07T14:59:23;17.63;;;6.82;;
54947;SDS011;41113;41.882;12.530;2022-12-07T15:01:48;21.80;;;8.07;;
54947;SDS011;41113;41.882;12.530;2022-12-07T15:04:14;19.98;;;7.65;;
54947;SDS011;41113;41.882;12.530;2022-12-07T15:06:40;18.85;;;7.85;;
54947;SDS011;41113;41.882;12.530;2022-12-07T15:09:09;18.65;;;7.88;;
54947;SDS011;41113;41.882;12.530;2022-12-07T15:11:36;22.60;;;8.10;;
54947;SDS011;41113;41.882;12.530;2022-12-07T15:14:03;17.70;;;7.68;;
54947;SDS011;41113;41.882;12.530;2022-12-07T15:16:36;22.27;;;8.95;;
54947;SDS011;41113;41.882;12.530;2022-12-07T15:19:05;23.90;;;8.70;;
54947;SDS011;41113;41.882;12.530;2022-12-07T15:21:30;20.83;;;8.43;;
54947;SDS011;41113;41.882;12.530;2022-12-07T15:23:56;21.45;;;8.30;;
54947;SDS011;41113;41.882;12.530;2022-12-07T15:26:21;19.33;;;7.82;;
54947;SDS011;41113;41.882;12.530;2022-12-07T15:28:47;23.90;;;8.88;;
54947;SDS011;41113;41.882;12.530;2022-12-07T15:31:12;17.88;;;8.48;;
54947;SDS011;41113;41.882;12.530;2022-12-07T15:33:42;23.55;;;9.75;;
54947;SDS011;41113;41.882;12.530;2022-12-07T15:36:09;16.88;;;8.05;;
54947;SDS011;41113;41.882;12.530;2022-12-07T15:38:43;21.60;;;8.98;;
54947;SDS011;41113;41.882;12.530;2022-12-07T15:41:09;17.20;;;8.38;;
54947;SDS011;41113;41.882;12.530;2022-12-07T15:43:35;20.85;;;9.80;;
54947;SDS011;41113;41.882;12.530;2022-12-07T15:46:34;22.00;;;9.15;;
54947;SDS011;41113;41.882;12.530;2022-12-07T15:49:02;18.50;;;8.07;;
54947;SDS011;41113;41.882;12.530;2022-12-07T15:51:29;22.75;;;8.82;;
54947;SDS011;41113;41.882;12.530;2022-12-07T15:54:06;21.05;;;8.30;;
54947;SDS011;41113;41.882;12.530;2022-12-07T15:56:31;23.20;;;9.38;;
54947;SDS011;41113;41.882;12.530;2022-12-07T15:58:57;19.27;;;8.88;;
54947;SDS011;41113;41.882;12.530;2022-12-07T16:01:22;27.02;;;9.98;;
54947;SDS011;41113;41.882;12.530;2022-12-07T16:03:48;23.27;;;10.00;;
54947;SDS011;41113;41.882;12.530;2022-12-07T16:06:17;20.90;;;9.48;;
54947;SDS011;41113;41.882;12.530;2022-12-07T16:08:43;19.40;;;8.50;;
54947;SDS011;41113;41.882;12.530;2022-12-07T16:11:10;22.40;;;10.45;;
54947;SDS011;41113;41.882;12.530;2022-12-07T16:13:38;21.35;;;8.68;;
54947;SDS011;41113;41.882;12.530;2022-12-07T16:16:09;19.25;;;8.80;;
54947;SDS011;41113;41.882;12.530;2022-12-07T16:18:36;16.58;;;7.78;;
54947;SDS011;41113;41.882;12.530;2022-12-07T16:21:02;24.75;;;10.10;;
54947;SDS011;41113;41.882;12.530;2022-12-07T16:23:28;24.05;;;10.55;;
54947;SDS011;41113;41.882;12.530;2022-12-07T16:25:53;19.95;;;9.75;;
54947;SDS011;41113;41.882;12.530;2022-12-07T16:28:19;26.30;;;10.68;;
54947;SDS011;41113;41.882;12.530;2022-12-07T16:30:44;23.48;;;10.45;;